sensor_id;sensor_type;location;lat;lon;timestamp;pressure;altitude;pressure_sealevel;temperature;humidity
69848;BME280;57143;55.940;37.496;2023-08-21T00:02:21;99510.50;;;14.53;100.00
69848;BME280;57143;55.940;37.496;2023-08-21T00:04:48;99504.59;;;14.56;100.00
69848;BME280;57143;55.940;37.496;2023-08-21T00:07:15;99515.53;;;14.45;100.00
69848;BME280;57143;55.940;37.496;2023-08-21T00:09:44;99457.25;;;14.18;100.00
69848;BME280;57143;55.940;37.496;2023-08-21T00:12:11;99521.16;;;14.55;100.00
69848;BME280;57143;55.940;37.496;2023-08-21T00:14:38;99511.56;;;14.36;100.00
69848;BME280;57143;55.940;37.496;2023-08-21T00:17:05;99501.56;;;14.41;100.00
69848;BME280;57143;55.940;37.496;2023-08-21T00:19:32;99489.13;;;14.29;100.00
69848;BME280;57143;55.940;37.496;2023-08-21T00:22:00;99508.84;;;14.36;100.00
69848;BME280;57143;55.940;37.496;2023-08-21T00:24:27;99508.53;;;14.32;100.00
69848;BME280;57143;55.940;37.496;2023-08-21T00:26:55;99500.81;;;14.29;100.00
69848;BME280;57143;55.940;37.496;2023-08-21T00:29:23;99510.34;;;14.27;100.00
69848;BME280;57143;55.940;37.496;2023-08-21T00:31:50;99511.16;;;14.27;100.00
69848;BME280;57143;55.940;37.496;2023-08-21T00:34:17;99476.66;;;14.05;100.00
69848;BME280;57143;55.940;37.496;2023-08-21T00:36:44;99503.84;;;14.16;100.00
69848;BME280;57143;55.940;37.496;2023-08-21T00:39:11;99502.66;;;14.12;100.00
69848;BME280;57143;55.940;37.496;2023-08-21T00:41:38;99495.25;;;14.24;100.00
69848;BME280;57143;55.940;37.496;2023-08-21T00:44:07;99483.44;;;14.19;100.00
69848;BME280;57143;55.940;37.496;2023-08-21T00:46:34;99463.25;;;14.03;100.00
69848;BME280;57143;55.940;37.496;2023-08-21T00:49:02;99467.31;;;14.17;100.00
69848;BME280;57143;55.940;37.496;2023-08-21T00:51:29;99467.81;;;14.14;100.00
69848;BME280;57143;55.940;37.496;2023-08-21T00:53:56;99432.31;;;14.09;100.00
69848;BME280;57143;55.940;37.496;2023-08-21T00:56:24;99443.63;;;14.18;100.00
69848;BME280;57143;55.940;37.496;2023-08-21T00:58:51;99436.41;;;14.12;100.00
69848;BME280;57143;55.940;37.496;2023-08-21T01:01:23;99425.06;;;14.15;100.00
69848;BME280;57143;55.940;37.496;2023-08-21T01:03:51;99416.47;;;14.06;100.00
69848;BME280;57143;55.940;37.496;2023-08-21T01:06:19;99399.19;;;14.01;100.00
69848;BME280;57143;55.940;37.496;2023-08-21T01:08:52;99406.94;;;14.09;100.00
69848;BME280;57143;55.940;37.496;2023-08-21T01:11:28;99355.81;;;13.82;100.00
69848;BME280;57143;55.940;37.496;2023-08-21T01:14:03;99392.56;;;13.97;100.00
69848;BME280;57143;55.940;37.496;2023-08-21T01:16:36;99405.22;;;14.03;100.00
69848;BME280;57143;55.940;37.496;2023-08-21T01:19:09;99397.63;;;14.05;100.00
69848;BME280;57143;55.940;37.496;2023-08-21T01:21:38;99386.19;;;13.91;100.00
69848;BME280;57143;55.940;37.496;2023-08-21T01:24:07;99370.94;;;13.90;100.00
69848;BME280;57143;55.940;37.496;2023-08-21T01:26:35;99381.50;;;14.03;100.00
69848;BME280;57143;55.940;37.496;2023-08-21T01:29:02;99372.34;;;13.93;100.00
69848;BME280;57143;55.940;37.496;2023-08-21T01:31:33;99358.94;;;13.91;100.00
69848;BME280;57143;55.940;37.496;2023-08-21T01:34:05;99370.19;;;13.94;100.00
69848;BME280;57143;55.940;37.496;2023-08-21T01:36:34;99339.72;;;13.81;100.00
69848;BME280;57143;55.940;37.496;2023-08-21T01:39:02;99354.75;;;14.00;100.00
69848;BME280;57143;55.940;37.496;2023-08-21T01:41:30;99358.94;;;13.91;100.00
69848;BME280;57143;55.940;37.496;2023-08-21T01:43:57;99350.28;;;13.77;100.00
69848;BME280;57143;55.940;37.496;2023-08-21T01:46:25;99332.81;;;13.73;100.00
69848;BME280;57143;55.940;37.496;2023-08-21T01:48:52;99348.56;;;13.71;100.00
69848;BME280;57143;55.940;37.496;2023-08-21T01:51:19;99326.59;;;13.78;100.00
69848;BME280;57143;55.940;37.496;2023-08-21T01:53:47;99302.00;;;13.73;100.00
69848;BME280;57143;55.940;37.496;2023-08-21T01:56:14;99317.53;;;13.89;100.00
69848;BME280;57143;55.940;37.496;2023-08-21T01:58:43;99319.81;;;13.80;100.00
69848;BME280;57143;55.940;37.496;2023-08-21T02:01:10;99308.91;;;13.80;100.00
69848;BME280;57143;55.940;37.496;2023-08-21T02:03:37;99308.13;;;13.80;100.00
69848;BME280;57143;55.940;37.496;2023-08-21T02:06:04;99320.41;;;13.82;100.00
69848;BME280;57143;55.940;37.496;2023-08-21T02:08:32;99324.84;;;13.72;100.00
69848;BME280;57143;55.940;37.496;2023-08-21T02:10:59;99316.34;;;13.68;100.00
69848;BME280;57143;55.940;37.496;2023-08-21T02:13:26;99327.34;;;13.73;100.00
69848;BME280;57143;55.940;37.496;2023-08-21T02:15:55;99323.22;;;13.71;100.00
69848;BME280;57143;55.940;37.496;2023-08-21T02:18:42;99330.88;;;13.74;100.00
69848;BME280;57143;55.940;37.496;2023-08-21T02:21:09;99339.63;;;13.76;100.00
69848;BME280;57143;55.940;37.496;2023-08-21T02:23:36;99326.19;;;13.69;100.00
69848;BME280;57143;55.940;37.496;2023-08-21T02:26:03;99337.00;;;13.64;100.00
69848;BME280;57143;55.940;37.496;2023-08-21T02:28:31;99346.00;;;13.65;100.00
69848;BME280;57143;55.940;37.496;2023-08-21T02:30:59;99340.22;;;13.78;100.00
69848;BME280;57143;55.940;37.496;2023-08-21T02:33:27;99338.81;;;14.25;100.00
69848;BME280;57143;55.940;37.496;2023-08-21T02:35:54;99343.00;;;14.49;100.00
69848;BME280;57143;55.940;37.496;2023-08-21T02:38:21;99360.47;;;14.32;100.00
69848;BME280;57143;55.940;37.496;2023-08-21T02:40:48;99361.59;;;14.36;100.00
69848;BME280;57143;55.940;37.496;2023-08-21T02:43:15;99382.34;;;14.20;100.00
69848;BME280;57143;55.940;37.496;2023-08-21T02:45:43;99390.09;;;14.12;100.00
69848;BME280;57143;55.940;37.496;2023-08-21T02:48:11;99410.41;;;14.04;100.00
69848;BME280;57143;55.940;37.496;2023-08-21T02:50:38;99418.13;;;14.40;100.00
69848;BME280;57143;55.940;37.496;2023-08-21T02:53:07;99396.63;;;15.20;100.00
69848;BME280;57143;55.940;37.496;2023-08-21T02:55:34;99421.91;;;16.12;100.00
69848;BME280;57143;55.940;37.496;2023-08-21T02:58:02;99444.47;;;16.92;100.00
69848;BME280;57143;55.940;37.496;2023-08-21T03:00:29;99482.97;;;17.27;100.00
69848;BME280;57143;55.940;37.496;2023-08-21T03:02:56;99533.47;;;17.93;100.00
69848;BME280;57143;55.940;37.496;2023-08-21T03:05:25;99577.22;;;18.35;100.00
69848;BME280;57143;55.940;37.496;2023-08-21T03:07:52;99653.91;;;18.62;100.00
69848;BME280;57143;55.940;37.496;2023-08-21T03:10:19;99697.84;;;17.37;100.00
69848;BME280;57143;55.940;37.496;2023-08-21T03:12:48;99704.09;;;18.57;100.00
69848;BME280;57143;55.940;37.496;2023-08-21T03:15:15;99734.97;;;18.89;100.00
69848;BME280;57143;55.940;37.496;2023-08-21T03:17:43;99743.56;;;17.94;100.00
69848;BME280;57143;55.940;37.496;2023-08-21T03:20:11;99751.38;;;18.74;100.00
69848;BME280;57143;55.940;37.496;2023-08-21T03:22:40;99765.91;;;19.46;100.00
69848;BME280;57143;55.940;37.496;2023-08-21T03:25:07;99775.53;;;19.79;100.00
69848;BME280;57143;55.940;37.496;2023-08-21T03:27:35;99774.13;;;20.07;100.00
69848;BME280;57143;55.940;37.496;2023-08-21T03:30:06;99768.34;;;19.93;100.00
69848;BME280;57143;55.940;37.496;2023-08-21T03:32:33;99770.00;;;20.29;100.00
69848;BME280;57143;55.940;37.496;2023-08-21T03:35:01;99775.25;;;19.71;100.00
69848;BME280;57143;55.940;37.496;2023-08-21T03:37:30;99760.09;;;20.18;100.00
69848;BME280;57143;55.940;37.496;2023-08-21T03:39:58;99759.53;;;20.21;100.00
69848;BME280;57143;55.940;37.496;2023-08-21T03:42:26;99771.84;;;20.49;100.00
69848;BME280;57143;55.940;37.496;2023-08-21T03:44:53;99786.16;;;21.20;100.00
69848;BME280;57143;55.940;37.496;2023-08-21T03:47:20;99801.59;;;20.42;100.00
69848;BME280;57143;55.940;37.496;2023-08-21T03:49:47;99762.53;;;20.35;100.00
69848;BME280;57143;55.940;37.496;2023-08-21T03:52:15;99760.81;;;20.54;100.00
69848;BME280;57143;55.940;37.496;2023-08-21T03:54:42;99771.13;;;20.92;100.00
69848;BME280;57143;55.940;37.496;2023-08-21T03:57:10;99798.63;;;19.58;100.00
69848;BME280;57143;55.940;37.496;2023-08-21T03:59:38;99762.31;;;19.86;100.00
69848;BME280;57143;55.940;37.496;2023-08-21T04:02:05;99795.31;;;20.01;100.00
69848;BME280;57143;55.940;37.496;2023-08-21T04:04:32;99790.81;;;20.60;100.00
69848;BME280;57143;55.940;37.496;2023-08-21T04:06:59;99787.31;;;20.30;100.00
69848;BME280;57143;55.940;37.496;2023-08-21T04:09:26;99808.47;;;20.54;100.00
69848;BME280;57143;55.940;37.496;2023-08-21T04:11:54;99820.25;;;20.75;100.00
69848;BME280;57143;55.940;37.496;2023-08-21T04:14:22;99803.78;;;20.45;100.00
69848;BME280;57143;55.940;37.496;2023-08-21T04:16:50;99808.16;;;20.61;100.00
69848;BME280;57143;55.940;37.496;2023-08-21T04:19:17;99811.00;;;20.31;100.00
69848;BME280;57143;55.940;37.496;2023-08-21T04:21:44;99805.75;;;21.18;100.00
69848;BME280;57143;55.940;37.496;2023-08-21T04:24:11;99806.94;;;20.92;100.00
69848;BME280;57143;55.940;37.496;2023-08-21T04:26:38;99820.94;;;21.11;100.00
69848;BME280;57143;55.940;37.496;2023-08-21T04:29:06;99826.88;;;21.76;100.00
69848;BME280;57143;55.940;37.496;2023-08-21T04:31:34;99836.78;;;21.39;100.00
69848;BME280;57143;55.940;37.496;2023-08-21T04:34:02;99837.03;;;22.77;100.00
69848;BME280;57143;55.940;37.496;2023-08-21T04:36:29;99860.78;;;22.49;100.00
69848;BME280;57143;55.940;37.496;2023-08-21T04:38:56;99851.44;;;22.98;100.00
69848;BME280;57143;55.940;37.496;2023-08-21T04:41:24;99854.00;;;22.37;100.00
69848;BME280;57143;55.940;37.496;2023-08-21T04:43:51;99848.06;;;21.91;100.00
69848;BME280;57143;55.940;37.496;2023-08-21T04:46:18;99854.97;;;21.89;100.00
69848;BME280;57143;55.940;37.496;2023-08-21T04:48:47;99855.50;;;21.42;100.00
69848;BME280;57143;55.940;37.496;2023-08-21T04:51:14;99821.34;;;22.15;100.00
69848;BME280;57143;55.940;37.496;2023-08-21T04:53:41;99863.16;;;22.04;100.00
69848;BME280;57143;55.940;37.496;2023-08-21T04:56:08;99852.63;;;21.18;100.00
69848;BME280;57143;55.940;37.496;2023-08-21T04:58:36;99843.03;;;22.27;100.00
69848;BME280;57143;55.940;37.496;2023-08-21T05:01:04;99826.66;;;21.29;100.00
69848;BME280;57143;55.940;37.496;2023-08-21T05:03:31;99840.13;;;22.13;100.00
69848;BME280;57143;55.940;37.496;2023-08-21T05:06:00;99842.63;;;21.32;100.00
69848;BME280;57143;55.940;37.496;2023-08-21T05:08:27;99837.84;;;21.92;100.00
69848;BME280;57143;55.940;37.496;2023-08-21T05:10:55;99860.28;;;22.14;100.00
69848;BME280;57143;55.940;37.496;2023-08-21T05:13:22;99831.72;;;21.56;100.00
69848;BME280;57143;55.940;37.496;2023-08-21T05:15:53;99822.94;;;21.49;100.00
69848;BME280;57143;55.940;37.496;2023-08-21T05:18:21;99843.41;;;22.77;100.00
69848;BME280;57143;55.940;37.496;2023-08-21T05:20:48;99854.19;;;22.17;100.00
69848;BME280;57143;55.940;37.496;2023-08-21T05:23:17;99843.81;;;22.32;100.00
69848;BME280;57143;55.940;37.496;2023-08-21T05:25:45;99827.56;;;22.31;100.00
69848;BME280;57143;55.940;37.496;2023-08-21T05:28:12;99836.69;;;21.98;100.00
69848;BME280;57143;55.940;37.496;2023-08-21T05:30:39;99852.94;;;21.99;100.00
69848;BME280;57143;55.940;37.496;2023-08-21T05:33:07;99840.22;;;22.65;100.00
69848;BME280;57143;55.940;37.496;2023-08-21T05:35:34;99849.75;;;22.21;100.00
69848;BME280;57143;55.940;37.496;2023-08-21T05:38:02;99846.38;;;23.05;100.00
69848;BME280;57143;55.940;37.496;2023-08-21T05:40:30;99851.97;;;22.76;100.00
69848;BME280;57143;55.940;37.496;2023-08-21T05:42:58;99853.03;;;21.89;100.00
69848;BME280;57143;55.940;37.496;2023-08-21T05:45:25;99842.38;;;23.16;100.00
69848;BME280;57143;55.940;37.496;2023-08-21T05:47:53;99839.59;;;22.92;100.00
69848;BME280;57143;55.940;37.496;2023-08-21T05:50:20;99836.41;;;23.27;100.00
69848;BME280;57143;55.940;37.496;2023-08-21T05:52:48;99836.81;;;23.39;100.00
69848;BME280;57143;55.940;37.496;2023-08-21T05:55:15;99850.31;;;23.22;100.00
69848;BME280;57143;55.940;37.496;2023-08-21T05:57:44;99851.47;;;22.40;100.00
69848;BME280;57143;55.940;37.496;2023-08-21T06:00:12;99853.19;;;22.65;100.00
69848;BME280;57143;55.940;37.496;2023-08-21T06:02:44;99833.72;;;21.45;100.00
69848;BME280;57143;55.940;37.496;2023-08-21T06:05:11;99824.56;;;22.79;100.00
69848;BME280;57143;55.940;37.496;2023-08-21T06:07:38;99850.69;;;22.40;100.00
69848;BME280;57143;55.940;37.496;2023-08-21T06:10:07;99849.25;;;23.18;100.00
69848;BME280;57143;55.940;37.496;2023-08-21T06:12:38;99851.31;;;22.84;100.00
69848;BME280;57143;55.940;37.496;2023-08-21T06:15:11;99861.72;;;23.39;100.00
69848;BME280;57143;55.940;37.496;2023-08-21T06:17:38;99832.69;;;21.36;100.00
69848;BME280;57143;55.940;37.496;2023-08-21T06:20:06;99839.88;;;21.71;100.00
69848;BME280;57143;55.940;37.496;2023-08-21T06:22:35;99811.56;;;21.60;100.00
69848;BME280;57143;55.940;37.496;2023-08-21T06:25:03;99815.44;;;20.17;100.00
69848;BME280;57143;55.940;37.496;2023-08-21T06:27:31;99792.53;;;20.36;100.00
69848;BME280;57143;55.940;37.496;2023-08-21T06:29:58;99808.66;;;20.78;100.00
69848;BME280;57143;55.940;37.496;2023-08-21T06:32:28;99808.88;;;20.97;100.00
69848;BME280;57143;55.940;37.496;2023-08-21T06:34:56;99826.78;;;21.53;100.00
69848;BME280;57143;55.940;37.496;2023-08-21T06:37:23;99800.59;;;21.07;100.00
69848;BME280;57143;55.940;37.496;2023-08-21T06:39:51;99797.97;;;20.61;100.00
69848;BME280;57143;55.940;37.496;2023-08-21T06:42:18;99806.59;;;20.00;100.00
69848;BME280;57143;55.940;37.496;2023-08-21T06:44:48;99789.28;;;19.79;100.00
69848;BME280;57143;55.940;37.496;2023-08-21T06:47:16;99802.03;;;20.84;100.00
69848;BME280;57143;55.940;37.496;2023-08-21T06:49:46;99734.94;;;20.45;100.00
69848;BME280;57143;55.940;37.496;2023-08-21T06:52:15;99776.38;;;21.42;100.00
69848;BME280;57143;55.940;37.496;2023-08-21T06:54:43;99830.41;;;21.48;100.00
69848;BME280;57143;55.940;37.496;2023-08-21T06:57:12;99767.22;;;21.08;100.00
69848;BME280;57143;55.940;37.496;2023-08-21T06:59:40;99801.00;;;21.67;100.00
69848;BME280;57143;55.940;37.496;2023-08-21T07:02:08;99847.69;;;21.59;100.00
69848;BME280;57143;55.940;37.496;2023-08-21T07:04:35;99811.56;;;22.56;100.00
69848;BME280;57143;55.940;37.496;2023-08-21T07:07:18;99857.16;;;23.85;100.00
69848;BME280;57143;55.940;37.496;2023-08-21T07:09:49;99880.19;;;23.20;100.00
69848;BME280;57143;55.940;37.496;2023-08-21T07:12:17;99877.00;;;22.61;100.00
69848;BME280;57143;55.940;37.496;2023-08-21T07:14:44;99872.88;;;22.25;100.00
69848;BME280;57143;55.940;37.496;2023-08-21T07:17:12;99877.41;;;22.11;100.00
69848;BME280;57143;55.940;37.496;2023-08-21T07:19:39;99875.81;;;21.02;100.00
69848;BME280;57143;55.940;37.496;2023-08-21T07:22:06;99834.22;;;20.94;100.00
69848;BME280;57143;55.940;37.496;2023-08-21T07:24:35;99855.91;;;21.20;100.00
69848;BME280;57143;55.940;37.496;2023-08-21T07:27:03;99871.69;;;22.02;100.00
69848;BME280;57143;55.940;37.496;2023-08-21T07:29:30;99863.31;;;22.74;100.00
69848;BME280;57143;55.940;37.496;2023-08-21T07:31:57;99853.06;;;23.22;100.00
69848;BME280;57143;55.940;37.496;2023-08-21T07:34:24;99872.72;;;22.45;100.00
69848;BME280;57143;55.940;37.496;2023-08-21T07:36:52;99889.50;;;23.06;100.00
69848;BME280;57143;55.940;37.496;2023-08-21T07:39:19;99894.69;;;23.12;100.00
69848;BME280;57143;55.940;37.496;2023-08-21T07:41:48;99889.16;;;21.93;100.00
69848;BME280;57143;55.940;37.496;2023-08-21T07:44:15;99885.09;;;23.05;100.00
69848;BME280;57143;55.940;37.496;2023-08-21T07:46:43;99861.88;;;21.42;100.00
69848;BME280;57143;55.940;37.496;2023-08-21T07:49:10;99878.78;;;21.69;100.00
69848;BME280;57143;55.940;37.496;2023-08-21T07:51:37;99873.94;;;21.56;100.00
69848;BME280;57143;55.940;37.496;2023-08-21T07:54:05;99870.09;;;21.47;100.00
69848;BME280;57143;55.940;37.496;2023-08-21T07:56:33;99872.06;;;21.91;100.00
69848;BME280;57143;55.940;37.496;2023-08-21T07:59:08;99879.34;;;21.71;100.00
69848;BME280;57143;55.940;37.496;2023-08-21T08:01:35;99881.78;;;22.55;100.00
69848;BME280;57143;55.940;37.496;2023-08-21T08:04:03;99888.03;;;22.61;100.00
69848;BME280;57143;55.940;37.496;2023-08-21T08:06:31;99877.41;;;22.44;100.00
69848;BME280;57143;55.940;37.496;2023-08-21T08:08:58;99884.44;;;21.98;100.00
69848;BME280;57143;55.940;37.496;2023-08-21T08:11:26;99880.41;;;22.19;100.00
69848;BME280;57143;55.940;37.496;2023-08-21T08:13:53;99875.97;;;22.18;100.00
69848;BME280;57143;55.940;37.496;2023-08-21T08:16:22;99882.41;;;22.42;100.00
69848;BME280;57143;55.940;37.496;2023-08-21T08:18:49;99884.38;;;22.70;100.00
69848;BME280;57143;55.940;37.496;2023-08-21T08:21:17;99883.84;;;22.92;100.00
69848;BME280;57143;55.940;37.496;2023-08-21T08:23:44;99839.56;;;22.16;100.00
69848;BME280;57143;55.940;37.496;2023-08-21T08:26:11;99879.53;;;21.85;100.00
69848;BME280;57143;55.940;37.496;2023-08-21T08:28:38;99849.09;;;21.95;100.00
69848;BME280;57143;55.940;37.496;2023-08-21T08:31:06;99869.13;;;22.16;100.00
69848;BME280;57143;55.940;37.496;2023-08-21T08:33:35;99863.69;;;21.62;100.00
69848;BME280;57143;55.940;37.496;2023-08-21T08:36:02;99848.97;;;22.15;100.00
69848;BME280;57143;55.940;37.496;2023-08-21T08:38:30;99850.47;;;21.98;100.00
69848;BME280;57143;55.940;37.496;2023-08-21T08:40:58;99868.84;;;22.98;100.00
69848;BME280;57143;55.940;37.496;2023-08-21T08:43:27;99873.56;;;22.40;100.00
69848;BME280;57143;55.940;37.496;2023-08-21T08:45:56;99863.94;;;21.65;100.00
69848;BME280;57143;55.940;37.496;2023-08-21T08:48:25;99845.97;;;21.19;100.00
69848;BME280;57143;55.940;37.496;2023-08-21T08:50:54;99840.94;;;20.57;100.00
69848;BME280;57143;55.940;37.496;2023-08-21T08:53:22;99818.59;;;20.74;100.00
69848;BME280;57143;55.940;37.496;2023-08-21T08:55:51;99839.34;;;21.25;100.00
69848;BME280;57143;55.940;37.496;2023-08-21T08:58:18;99820.03;;;20.51;100.00
69848;BME280;57143;55.940;37.496;2023-08-21T09:00:45;99844.22;;;20.69;100.00
69848;BME280;57143;55.940;37.496;2023-08-21T09:03:13;99842.47;;;21.09;100.00
69848;BME280;57143;55.940;37.496;2023-08-21T09:05:41;99807.28;;;20.81;100.00
69848;BME280;57143;55.940;37.496;2023-08-21T09:08:13;99833.88;;;21.15;100.00
69848;BME280;57143;55.940;37.496;2023-08-21T09:10:42;99837.47;;;21.11;100.00
69848;BME280;57143;55.940;37.496;2023-08-21T09:13:12;99817.31;;;20.36;100.00
69848;BME280;57143;55.940;37.496;2023-08-21T09:15:41;99782.13;;;20.18;100.00
69848;BME280;57143;55.940;37.496;2023-08-21T09:18:10;99801.34;;;20.38;100.00
69848;BME280;57143;55.940;37.496;2023-08-21T09:20:38;99790.91;;;20.25;100.00
69848;BME280;57143;55.940;37.496;2023-08-21T09:23:05;99834.66;;;20.32;100.00
69848;BME280;57143;55.940;37.496;2023-08-21T09:25:38;99802.31;;;20.83;100.00
69848;BME280;57143;55.940;37.496;2023-08-21T09:28:06;99836.97;;;20.99;100.00
69848;BME280;57143;55.940;37.496;2023-08-21T09:30:46;99836.28;;;21.32;100.00
69848;BME280;57143;55.940;37.496;2023-08-21T09:33:17;99838.72;;;21.38;100.00
69848;BME280;57143;55.940;37.496;2023-08-21T09:35:45;99818.84;;;21.41;100.00
69848;BME280;57143;55.940;37.496;2023-08-21T09:38:12;99828.03;;;21.27;100.00
69848;BME280;57143;55.940;37.496;2023-08-21T09:40:43;99810.75;;;21.11;100.00
69848;BME280;57143;55.940;37.496;2023-08-21T09:43:11;99820.09;;;21.64;100.00
69848;BME280;57143;55.940;37.496;2023-08-21T09:45:39;99837.91;;;21.82;100.00
69848;BME280;57143;55.940;37.496;2023-08-21T09:48:07;99824.59;;;21.50;100.00
69848;BME280;57143;55.940;37.496;2023-08-21T09:50:35;99836.56;;;21.79;100.00
69848;BME280;57143;55.940;37.496;2023-08-21T09:53:06;99830.09;;;20.96;100.00
69848;BME280;57143;55.940;37.496;2023-08-21T09:55:54;99851.72;;;21.33;100.00
69848;BME280;57143;55.940;37.496;2023-08-21T09:58:22;99859.03;;;20.99;100.00
69848;BME280;57143;55.940;37.496;2023-08-21T10:00:50;99855.66;;;21.17;100.00
69848;BME280;57143;55.940;37.496;2023-08-21T10:03:21;99858.75;;;21.00;100.00
69848;BME280;57143;55.940;37.496;2023-08-21T10:05:50;99873.69;;;21.48;100.00
69848;BME280;57143;55.940;37.496;2023-08-21T10:08:23;99891.59;;;21.50;100.00
69848;BME280;57143;55.940;37.496;2023-08-21T10:10:54;99839.94;;;21.17;100.00
69848;BME280;57143;55.940;37.496;2023-08-21T10:13:23;99863.25;;;21.40;100.00
69848;BME280;57143;55.940;37.496;2023-08-21T10:15:50;99876.53;;;21.33;100.00
69848;BME280;57143;55.940;37.496;2023-08-21T10:18:19;99886.41;;;21.44;100.00
69848;BME280;57143;55.940;37.496;2023-08-21T10:20:47;99893.56;;;21.50;100.00
69848;BME280;57143;55.940;37.496;2023-08-21T10:23:24;99880.00;;;21.00;100.00
69848;BME280;57143;55.940;37.496;2023-08-21T10:25:56;99871.78;;;21.48;100.00
69848;BME280;57143;55.940;37.496;2023-08-21T10:28:24;99886.31;;;21.64;100.00
69848;BME280;57143;55.940;37.496;2023-08-21T10:30:51;99850.44;;;21.64;100.00
69848;BME280;57143;55.940;37.496;2023-08-21T10:33:47;99875.16;;;21.84;100.00
69848;BME280;57143;55.940;37.496;2023-08-21T10:36:14;99886.53;;;21.72;100.00
69848;BME280;57143;55.940;37.496;2023-08-21T10:39:03;99881.22;;;21.32;100.00
69848;BME280;57143;55.940;37.496;2023-08-21T10:41:36;99881.41;;;21.51;100.00
69848;BME280;57143;55.940;37.496;2023-08-21T10:44:05;99867.66;;;21.41;100.00
69848;BME280;57143;55.940;37.496;2023-08-21T10:46:51;99897.28;;;21.20;100.00
69848;BME280;57143;55.940;37.496;2023-08-21T10:49:19;99883.13;;;21.37;100.00
69848;BME280;57143;55.940;37.496;2023-08-21T10:51:46;99868.38;;;21.08;100.00
69848;BME280;57143;55.940;37.496;2023-08-21T10:54:16;99894.22;;;21.27;100.00
69848;BME280;57143;55.940;37.496;2023-08-21T10:56:45;99891.16;;;21.28;100.00
69848;BME280;57143;55.940;37.496;2023-08-21T10:59:12;99885.81;;;21.47;100.00
69848;BME280;57143;55.940;37.496;2023-08-21T11:01:43;99886.44;;;21.34;100.00
69848;BME280;57143;55.940;37.496;2023-08-21T11:04:11;99884.09;;;20.92;100.00
69848;BME280;57143;55.940;37.496;2023-08-21T11:06:39;99881.94;;;20.79;100.00
69848;BME280;57143;55.940;37.496;2023-08-21T11:09:12;99880.78;;;20.90;100.00
69848;BME280;57143;55.940;37.496;2023-08-21T11:11:40;99867.53;;;20.97;100.00
69848;BME280;57143;55.940;37.496;2023-08-21T11:14:08;99874.13;;;21.16;100.00
69848;BME280;57143;55.940;37.496;2023-08-21T11:16:37;99875.44;;;21.34;100.00
69848;BME280;57143;55.940;37.496;2023-08-21T11:19:04;99863.94;;;21.17;100.00
69848;BME280;57143;55.940;37.496;2023-08-21T11:21:32;99862.66;;;20.84;100.00
69848;BME280;57143;55.940;37.496;2023-08-21T11:24:00;99879.44;;;20.88;100.00
69848;BME280;57143;55.940;37.496;2023-08-21T11:26:27;99865.44;;;20.69;100.00
69848;BME280;57143;55.940;37.496;2023-08-21T11:28:56;99877.25;;;20.90;100.00
69848;BME280;57143;55.940;37.496;2023-08-21T11:31:24;99883.03;;;20.98;100.00
69848;BME280;57143;55.940;37.496;2023-08-21T11:33:52;99858.19;;;21.08;100.00
69848;BME280;57143;55.940;37.496;2023-08-21T11:36:20;99875.44;;;21.29;100.00
69848;BME280;57143;55.940;37.496;2023-08-21T11:38:58;99876.81;;;21.36;100.00
69848;BME280;57143;55.940;37.496;2023-08-21T11:41:26;99882.59;;;21.30;100.00
69848;BME280;57143;55.940;37.496;2023-08-21T11:43:57;99883.69;;;21.34;100.00
69848;BME280;57143;55.940;37.496;2023-08-21T11:46:31;99869.72;;;21.15;100.00
69848;BME280;57143;55.940;37.496;2023-08-21T11:49:00;99879.50;;;21.46;100.00
69848;BME280;57143;55.940;37.496;2023-08-21T11:51:27;99892.88;;;21.14;100.00
69848;BME280;57143;55.940;37.496;2023-08-21T11:53:55;99890.53;;;21.46;100.00
69848;BME280;57143;55.940;37.496;2023-08-21T11:56:27;99881.84;;;21.68;100.00
69848;BME280;57143;55.940;37.496;2023-08-21T11:58:55;99887.88;;;21.75;100.00
69848;BME280;57143;55.940;37.496;2023-08-21T12:01:25;99865.22;;;21.34;100.00
69848;BME280;57143;55.940;37.496;2023-08-21T12:03:58;99876.19;;;21.44;100.00
69848;BME280;57143;55.940;37.496;2023-08-21T12:06:26;99872.84;;;21.52;100.00
69848;BME280;57143;55.940;37.496;2023-08-21T12:08:58;99876.31;;;21.68;100.00
69848;BME280;57143;55.940;37.496;2023-08-21T12:11:26;99892.69;;;21.54;100.00
69848;BME280;57143;55.940;37.496;2023-08-21T12:13:53;99879.47;;;21.51;100.00
69848;BME280;57143;55.940;37.496;2023-08-21T12:16:20;99875.75;;;21.22;100.00
69848;BME280;57143;55.940;37.496;2023-08-21T12:18:48;99886.44;;;21.34;100.00
69848;BME280;57143;55.940;37.496;2023-08-21T12:21:19;99902.16;;;21.33;100.00
69848;BME280;57143;55.940;37.496;2023-08-21T12:23:46;99902.22;;;21.23;100.00
69848;BME280;57143;55.940;37.496;2023-08-21T12:26:13;99889.50;;;21.32;100.00
69848;BME280;57143;55.940;37.496;2023-08-21T12:28:46;99893.78;;;21.58;100.00
69848;BME280;57143;55.940;37.496;2023-08-21T12:31:13;99865.28;;;21.24;100.00
69848;BME280;57143;55.940;37.496;2023-08-21T12:33:41;99884.59;;;21.68;100.00
69848;BME280;57143;55.940;37.496;2023-08-21T12:36:08;99888.38;;;21.87;100.00
69848;BME280;57143;55.940;37.496;2023-08-21T12:38:39;99887.19;;;21.98;100.00
69848;BME280;57143;55.940;37.496;2023-08-21T12:41:06;99863.31;;;21.73;100.00
69848;BME280;57143;55.940;37.496;2023-08-21T12:43:33;99870.44;;;21.90;100.00
69848;BME280;57143;55.940;37.496;2023-08-21T12:46:00;99866.53;;;21.91;100.00
69848;BME280;57143;55.940;37.496;2023-08-21T12:48:28;99877.25;;;21.53;100.00